NCAR-RAP Real-Time Weather Data

Output produced by METARs form (17 October 2018  15:46 UTC)
found at http://weather.rap.ucar.edu/surface/
 
RJOM 171200Z 12007KT 9999 FEW030 BKN/// 17/08 Q1013
RJOM 171100Z 11008KT 9999 FEW030 SCT/// 18/08 Q1013
RJOM 171000Z VRB04KT 9999 FEW030 BKN/// 19/09 Q1012
RJOM 170900Z 28005KT 9999 FEW030 SCT/// 20/10 Q1012
RJOM 170800Z 31007KT 9999 FEW030 SCT/// 20/07 Q1011
RJOM 170700Z 33006KT 9999 FEW030 BKN/// 22/07 Q1011
RJOM 170600Z 34009KT 9999 FEW030 BKN/// 22/05 Q1011
RJOM 170500Z 34008KT 9999 FEW030 BKN/// 23/08 Q1011
RJOM 170400Z 36010KT 9999 FEW025 SCT/// 22/10 Q1011
RJOM 170300Z 35008KT 9999 FEW025 BKN/// 21/09 Q1012
RJOM 170200Z 35008KT 9999 FEW020 BKN/// 21/10 Q1012
RJOM 170100Z 01007KT 9999 FEW020 BKN/// 20/11 Q1012
RJOM 170000Z 03006KT 350V060 9999 FEW020 SCT/// 19/09 Q1013
RJOM 162300Z VRB02KT 9999 FEW025 SCT/// 18/09 Q1012
RJOM 162200Z 11005KT 9999 FEW025 SCT060 16/10 Q1012
RJOM 162110Z 13004KT 9999 FEW025 SCT120 16/11 Q1012 RMK 2CU025 4AC120 A2989
RJOM 161200Z 07003KT 040V110 9999 FEW030 BKN120 20/11 Q1011
RJOM 161100Z 12003KT 9999 FEW030 SCT120 BKN180 20/12 Q1011
RJOM 161000Z 14004KT 9999 FEW030 SCT120 BKN180 19/11 Q1010
RJOM 160900Z 03004KT 9999 FEW030 BKN110 BKN/// 21/14 Q1010
RJOM 160800Z 34004KT 9999 FEW025 BKN120 BKN/// 22/12 Q1011
RJOM 160700Z 35006KT 9999 FEW025 BKN140 BKN170 22/12 Q1010
RJOM 160600Z 35007KT 9999 FEW025 BKN150 BKN/// 22/11 Q1010
RJOM 160500Z 35008KT 9999 FEW025 BKN130 BKN150 22/12 Q1011
RJOM 160400Z 33007KT 9999 FEW025 BKN150 22/12 Q1012
RJOM 160300Z 35006KT 310V020 9999 FEW025 BKN130 21/12 Q1012
RJOM 160200Z 32004KT 280V360 9999 FEW025 BKN160 21/10 Q1013
RJOM 160100Z VRB03KT 9999 FEW025 BKN/// 20/09 Q1014
RJOM 160000Z VRB01KT 9999 FEW025 BKN/// 19/12 Q1015
RJOM 152300Z 14005KT 9999 FEW025 SCT150 BKN/// 17/10 Q1015
RJOM 152200Z 12004KT 9999 FEW025 SCT140 OVC180 16/11 Q1014
RJOM 152110Z 12004KT 9999 FEW025 SCT140 BKN180 16/10 Q1014 RMK 1CU025 3AC140 7AC180 A2997
RJOM 151200Z 11008KT 9999 FEW030 SCT/// 18/11 Q1016
RJOM 151100Z 12006KT 9999 FEW030 SCT/// 19/11 Q1017
RJOM 151000Z 23004KT 170V260 9999 FEW030 SCT/// 20/11 Q1016
RJOM 150900Z 23004KT 9999 FEW030 BKN/// 20/10 Q1016
RJOM 150800Z 23004KT 190V260 9999 FEW025 BKN/// 21/08 Q1015
RJOM 150700Z 24004KT 9999 FEW025 BKN/// 21/08 Q1016
RJOM 150600Z 26006KT 220V290 9999 FEW020 BKN/// 22/09 Q1016
RJOM 150500Z 28006KT 220V320 9999 FEW020 BKN/// 22/09 Q1016
RJOM 150400Z 28007KT 9999 FEW020 SCT/// 23/11 Q1017